createdAt,value
2019-02-21T00:01:39.521Z,98.60
2019-02-21T00:04:08.967Z,98.30
2019-02-21T00:06:42.597Z,98.20
2019-02-21T00:09:11.916Z,98.40
2019-02-21T00:11:41.273Z,98.80
2019-02-21T00:14:10.605Z,99.60
2019-02-21T00:16:39.964Z,99.70
2019-02-21T00:19:09.329Z,99.90
2019-02-21T00:21:38.676Z,99.90
2019-02-21T00:24:08.041Z,99.80
2019-02-21T00:26:37.428Z,99.80
2019-02-21T00:29:06.740Z,99.40
2019-02-21T00:31:36.158Z,99.60
2019-02-21T00:34:05.583Z,99.70
2019-02-21T00:36:34.895Z,99.20
2019-02-21T00:39:06.066Z,99.90
2019-02-21T00:41:36.410Z,99.90
2019-02-21T00:44:05.744Z,99.90
2019-02-21T00:46:35.066Z,99.90
2019-02-21T00:49:05.573Z,99.90
2019-02-21T00:51:34.891Z,99.90
2019-02-21T00:54:04.287Z,99.90
2019-02-21T00:56:33.608Z,99.90
2019-02-21T00:59:02.928Z,99.80
2019-02-21T01:01:32.308Z,99.90
2019-02-21T01:04:01.681Z,99.90
2019-02-21T01:06:31.072Z,99.90
2019-02-21T01:09:00.441Z,99.90
2019-02-21T01:11:31.320Z,99.90
2019-02-21T01:14:00.661Z,99.90
2019-02-21T01:16:29.979Z,99.90
2019-02-21T01:18:59.359Z,99.90
2019-02-21T01:21:28.782Z,99.80
2019-02-21T01:23:58.093Z,99.80
2019-02-21T01:26:27.421Z,99.90
2019-02-21T01:28:56.762Z,99.90
2019-02-21T01:31:26.072Z,99.90
2019-02-21T01:33:55.401Z,99.90
2019-02-21T01:36:24.727Z,99.90
2019-02-21T01:38:54.050Z,99.90
2019-02-21T01:41:23.365Z,99.90
2019-02-21T01:43:52.708Z,99.90
2019-02-21T01:46:22.024Z,99.90
2019-02-21T01:48:51.333Z,99.90
2019-02-21T01:51:20.673Z,99.90
2019-02-21T01:53:49.983Z,99.90
2019-02-21T01:56:20.135Z,99.90
2019-02-21T01:58:49.483Z,99.90
2019-02-21T02:01:18.792Z,99.90
2019-02-21T02:03:49.245Z,99.90
2019-02-21T02:06:18.575Z,99.90
2019-02-21T02:08:47.953Z,99.90
2019-02-21T02:11:17.269Z,99.90
2019-02-21T02:13:46.719Z,99.90
2019-02-21T02:16:16.161Z,99.90
2019-02-21T02:18:45.472Z,99.90
2019-02-21T02:21:14.801Z,99.90
2019-02-21T02:23:44.124Z,99.90
2019-02-21T02:26:13.436Z,99.90
2019-02-21T02:28:42.760Z,99.90
2019-02-21T02:31:22.131Z,99.90
2019-02-21T02:33:43.364Z,99.90
2019-02-21T02:36:12.760Z,99.90
2019-02-21T02:38:42.091Z,99.90
2019-02-21T02:41:11.575Z,99.90
2019-02-21T02:43:40.925Z,99.90
2019-02-21T02:46:10.252Z,99.90
2019-02-21T02:48:39.556Z,99.90
2019-02-21T02:51:08.895Z,99.90
2019-02-21T02:53:38.206Z,99.90
2019-02-21T02:56:07.599Z,99.90
2019-02-21T02:58:36.959Z,99.90
2019-02-21T03:01:06.409Z,99.90
2019-02-21T03:03:35.804Z,99.90
2019-02-21T03:06:05.296Z,99.90
2019-02-21T03:08:34.608Z,99.90
2019-02-21T03:11:04.005Z,99.90
2019-02-21T03:13:33.322Z,99.90
2019-02-21T03:16:02.635Z,99.90
2019-02-21T03:18:31.996Z,99.90
2019-02-21T03:21:01.319Z,99.90
2019-02-21T03:23:30.627Z,99.90
2019-02-21T03:25:59.988Z,99.90
2019-02-21T03:28:29.298Z,99.90
2019-02-21T03:30:58.619Z,99.90
2019-02-21T03:33:28.000Z,99.90
2019-02-21T03:35:57.384Z,99.90
2019-02-21T03:38:26.702Z,99.90
2019-02-21T03:40:56.200Z,99.90
2019-02-21T03:43:25.511Z,99.90
2019-02-21T03:45:54.827Z,99.90
2019-02-21T03:48:24.185Z,99.90
2019-02-21T03:50:53.505Z,99.90
2019-02-21T03:53:22.888Z,99.90
2019-02-21T03:55:53.510Z,99.90
2019-02-21T03:58:22.899Z,99.90
2019-02-21T04:00:52.278Z,99.90
2019-02-21T04:03:21.605Z,99.90
2019-02-21T04:05:51.065Z,99.90
2019-02-21T04:08:20.398Z,99.90
2019-02-21T04:10:49.714Z,99.90
2019-02-21T04:13:19.031Z,99.90
2019-02-21T04:15:48.391Z,99.90
2019-02-21T04:18:17.749Z,99.90
2019-02-21T04:20:47.083Z,99.90
2019-02-21T04:23:16.479Z,99.90
2019-02-21T04:25:45.801Z,99.90
2019-02-21T04:28:15.122Z,99.90
2019-02-21T04:30:44.517Z,99.90
2019-02-21T04:33:13.890Z,99.90
2019-02-21T04:35:43.272Z,99.90
2019-02-21T04:38:12.582Z,99.90
2019-02-21T04:40:41.929Z,99.90
2019-02-21T04:43:11.252Z,99.90
2019-02-21T04:45:40.574Z,99.90
2019-02-21T04:48:10.016Z,99.90
2019-02-21T04:50:39.327Z,99.90
2019-02-21T04:53:08.653Z,99.90
2019-02-21T04:55:38.213Z,99.90
2019-02-21T04:58:07.522Z,99.90
2019-02-21T05:00:36.865Z,99.90
2019-02-21T05:03:06.260Z,99.90
2019-02-21T05:05:35.639Z,99.90
2019-02-21T05:08:04.975Z,99.90
2019-02-21T05:10:34.304Z,99.90
2019-02-21T05:13:03.624Z,99.90
2019-02-21T05:15:33.127Z,99.90
2019-02-21T05:18:02.498Z,99.90
2019-02-21T05:20:31.875Z,99.90
2019-02-21T05:23:01.224Z,99.90
2019-02-21T05:25:30.565Z,99.90
2019-02-21T05:28:01.582Z,99.90
2019-02-21T05:30:30.879Z,99.90
2019-02-21T05:33:04.570Z,99.90
2019-02-21T05:35:35.636Z,99.90
2019-02-21T05:38:07.794Z,99.90
2019-02-21T05:40:42.168Z,99.90
2019-02-21T05:43:22.515Z,99.90
2019-02-21T05:45:59.626Z,99.90
2019-02-21T05:48:30.595Z,99.90
2019-02-21T05:51:01.584Z,99.90
2019-02-21T05:53:47.236Z,99.90
2019-02-21T05:56:23.903Z,99.90
2019-02-21T05:58:57.740Z,99.90
2019-02-21T06:01:37.715Z,99.90
2019-02-21T06:04:20.856Z,99.90
2019-02-21T06:06:54.529Z,99.90
2019-02-21T06:09:31.219Z,99.90
2019-02-21T06:12:02.256Z,99.90
2019-02-21T06:14:36.377Z,99.90
2019-02-21T06:17:07.339Z,99.90
2019-02-21T06:19:38.321Z,99.90
2019-02-21T06:22:15.025Z,99.90
2019-02-21T06:24:48.723Z,99.90
2019-02-21T06:27:25.333Z,99.90
2019-02-21T06:30:02.428Z,99.90
2019-02-21T06:32:33.129Z,99.90
2019-02-21T06:35:03.150Z,99.90
2019-02-21T06:37:32.697Z,99.90
2019-02-21T06:40:02.115Z,99.90
2019-02-21T06:42:31.554Z,99.90
2019-02-21T06:45:00.954Z,99.90
2019-02-21T06:47:30.278Z,99.90
2019-02-21T06:49:59.633Z,99.90
2019-02-21T06:52:28.938Z,99.90
2019-02-21T06:54:58.266Z,99.90
2019-02-21T06:57:27.664Z,99.90
2019-02-21T06:59:56.983Z,99.90
2019-02-21T07:02:28.141Z,99.90
2019-02-21T07:04:57.369Z,99.90
2019-02-21T07:07:26.690Z,99.90
2019-02-21T07:09:56.106Z,99.90
2019-02-21T07:12:25.475Z,99.90
2019-02-21T07:14:54.797Z,99.90
2019-02-21T07:17:27.421Z,99.90
2019-02-21T07:19:56.699Z,99.90
2019-02-21T07:22:26.035Z,99.90
2019-02-21T07:24:56.986Z,99.90
2019-02-21T07:27:26.421Z,99.90
2019-02-21T07:29:55.875Z,99.90
2019-02-21T07:32:25.181Z,99.90
2019-02-21T07:34:54.637Z,99.90
2019-02-21T07:37:24.027Z,99.90
2019-02-21T07:39:53.352Z,99.90
2019-02-21T07:42:22.771Z,99.90
2019-02-21T07:44:52.113Z,99.90
2019-02-21T07:47:21.653Z,99.90
2019-02-21T07:49:50.994Z,99.90
2019-02-21T07:52:21.380Z,99.90
2019-02-21T07:55:01.049Z,99.90
2019-02-21T07:57:21.729Z,99.90
2019-02-21T07:59:51.044Z,99.90
2019-02-21T08:02:21.007Z,99.90
2019-02-21T08:04:50.482Z,99.90
2019-02-21T08:07:19.797Z,99.90
2019-02-21T08:09:49.119Z,99.90
2019-02-21T08:12:18.447Z,99.90
2019-02-21T08:14:47.806Z,99.90
2019-02-21T08:17:17.192Z,99.90
2019-02-21T08:19:48.052Z,99.90
2019-02-21T08:22:17.370Z,99.90
2019-02-21T08:24:46.694Z,99.90
2019-02-21T08:27:16.041Z,99.80
2019-02-21T08:29:46.425Z,99.90
2019-02-21T08:32:17.439Z,99.90
2019-02-21T08:34:48.502Z,99.90
2019-02-21T08:37:18.813Z,99.90
2019-02-21T08:39:48.259Z,99.80
2019-02-21T08:42:17.584Z,99.90
2019-02-21T08:44:46.918Z,99.70
2019-02-21T08:47:16.419Z,99.90
2019-02-21T08:49:45.804Z,99.60
2019-02-21T08:52:15.114Z,99.00
2019-02-21T08:54:44.497Z,98.60
2019-02-21T08:57:13.818Z,98.90
2019-02-21T08:59:43.214Z,98.90
2019-02-21T09:02:12.586Z,99.30
2019-02-21T09:04:41.924Z,98.20
2019-02-21T09:07:11.305Z,97.50
2019-02-21T09:09:41.725Z,98.10
2019-02-21T09:12:11.051Z,97.50
2019-02-21T09:14:40.448Z,97.80
2019-02-21T09:17:09.774Z,97.40
2019-02-21T09:19:39.107Z,97.60
2019-02-21T09:22:08.580Z,96.90
2019-02-21T09:24:42.303Z,96.50
2019-02-21T09:27:09.989Z,96.10
2019-02-21T09:29:39.304Z,95.80
2019-02-21T09:32:08.641Z,95.10
2019-02-21T09:34:37.943Z,95.00
2019-02-21T09:37:07.269Z,94.70
2019-02-21T09:39:36.631Z,95.10
2019-02-21T09:42:06.017Z,94.20
2019-02-21T09:44:35.956Z,95.00
2019-02-21T09:47:05.452Z,94.40
2019-02-21T09:49:34.884Z,93.60
2019-02-21T09:52:04.342Z,93.30
2019-02-21T09:54:33.671Z,93.90
2019-02-21T09:57:12.891Z,93.40
2019-02-21T09:59:34.105Z,93.00
2019-02-21T10:02:03.551Z,92.80
2019-02-21T10:04:32.936Z,92.00
2019-02-21T10:07:02.246Z,91.10
2019-02-21T10:09:31.650Z,91.20
2019-02-21T10:12:00.965Z,90.30
2019-02-21T10:14:30.287Z,90.50
2019-02-21T10:16:59.636Z,90.90
2019-02-21T10:19:28.957Z,90.60
2019-02-21T10:21:58.285Z,89.30
2019-02-21T10:24:27.640Z,88.60
2019-02-21T10:26:56.964Z,86.20
2019-02-21T10:29:26.384Z,85.70
2019-02-21T10:31:55.938Z,85.70
2019-02-21T10:34:25.254Z,85.10
2019-02-21T10:36:54.570Z,84.50
2019-02-21T10:39:23.981Z,83.70
2019-02-21T10:41:53.324Z,84.90
2019-02-21T10:44:22.709Z,84.60
2019-02-21T10:46:52.023Z,85.70
2019-02-21T10:49:22.460Z,83.90
2019-02-21T10:51:51.778Z,82.40
2019-02-21T10:54:21.099Z,81.10
2019-02-21T10:56:50.537Z,77.30
2019-02-21T10:59:19.856Z,79.50
2019-02-21T11:01:49.188Z,79.10
2019-02-21T11:04:18.725Z,75.70
2019-02-21T11:06:48.045Z,74.10
2019-02-21T11:09:21.186Z,71.80
2019-02-21T11:11:50.643Z,72.50
2019-02-21T11:14:20.111Z,70.60
2019-02-21T11:16:49.474Z,69.20
2019-02-21T11:19:18.788Z,71.80
2019-02-21T11:21:48.109Z,70.50
2019-02-21T11:24:17.543Z,73.60
2019-02-21T11:26:46.867Z,71.40
2019-02-21T11:29:16.192Z,67.90
2019-02-21T11:31:45.559Z,66.50
2019-02-21T11:34:14.881Z,71.40
2019-02-21T11:36:44.276Z,70.10
2019-02-21T11:39:13.617Z,67.10
2019-02-21T11:41:42.932Z,66.00
2019-02-21T11:44:12.263Z,66.40
2019-02-21T11:46:41.607Z,65.10
2019-02-21T11:49:10.936Z,64.80
2019-02-21T11:51:40.260Z,64.80
2019-02-21T11:54:09.597Z,67.70
2019-02-21T11:56:38.934Z,67.70
2019-02-21T11:59:08.322Z,67.30
2019-02-21T12:01:39.733Z,67.60
2019-02-21T12:04:09.985Z,65.80
2019-02-21T12:06:39.328Z,66.70
2019-02-21T12:09:10.484Z,65.70
2019-02-21T12:11:40.045Z,65.30
2019-02-21T12:14:09.392Z,67.40
2019-02-21T12:16:38.771Z,64.00
2019-02-21T12:19:08.223Z,62.30
2019-02-21T12:21:37.619Z,61.30
2019-02-21T12:24:06.944Z,60.40
2019-02-21T12:26:36.260Z,62.30
2019-02-21T12:29:05.705Z,62.30
2019-02-21T12:31:35.020Z,62.10
2019-02-21T12:34:04.533Z,62.90
2019-02-21T12:36:33.884Z,59.40
2019-02-21T12:39:04.342Z,62.90
2019-02-21T12:41:35.334Z,58.80
2019-02-21T12:44:04.650Z,61.20
2019-02-21T12:46:34.030Z,60.10
2019-02-21T12:49:03.686Z,58.90
2019-02-21T12:51:33.078Z,61.00
2019-02-21T12:54:02.774Z,58.80
2019-02-21T12:56:32.198Z,59.50
2019-02-21T12:59:01.516Z,59.80
2019-02-21T13:01:30.839Z,57.90
2019-02-21T13:04:00.185Z,54.40
2019-02-21T13:06:29.518Z,55.00
2019-02-21T13:08:58.864Z,54.20
2019-02-21T13:11:28.279Z,54.30
2019-02-21T13:13:57.597Z,53.00
2019-02-21T13:16:26.993Z,53.20
2019-02-21T13:18:56.340Z,53.50
2019-02-21T13:21:25.698Z,53.70
2019-02-21T13:23:55.057Z,52.70
2019-02-21T13:26:24.387Z,52.30
2019-02-21T13:28:53.703Z,51.90
2019-02-21T13:31:24.107Z,51.10
2019-02-21T13:33:53.462Z,51.70
2019-02-21T13:36:22.785Z,50.70
2019-02-21T13:38:53.177Z,52.50
2019-02-21T13:41:22.528Z,51.70
2019-02-21T13:43:51.847Z,51.50
2019-02-21T13:46:21.185Z,53.30
2019-02-21T13:48:50.564Z,52.80
2019-02-21T13:51:19.890Z,53.10
2019-02-21T13:53:49.211Z,54.80
2019-02-21T13:56:18.579Z,51.60
2019-02-21T13:58:47.901Z,50.90
2019-02-21T14:01:17.260Z,49.70
2019-02-21T14:03:46.652Z,51.80
2019-02-21T14:06:15.965Z,50.50
2019-02-21T14:08:45.292Z,51.50
2019-02-21T14:11:15.634Z,48.60
2019-02-21T14:13:45.039Z,49.60
2019-02-21T14:16:14.356Z,48.10
2019-02-21T14:18:43.728Z,48.10
2019-02-21T14:21:13.034Z,46.30
2019-02-21T14:23:42.436Z,46.40
2019-02-21T14:26:11.860Z,46.50
2019-02-21T14:28:41.361Z,47.70
2019-02-21T14:31:10.693Z,47.20
2019-02-21T14:33:40.064Z,48.30
2019-02-21T14:36:15.500Z,46.80
2019-02-21T14:38:40.434Z,47.00
2019-02-21T14:41:09.756Z,48.40
2019-02-21T14:43:39.140Z,48.80
2019-02-21T14:46:08.521Z,48.40
2019-02-21T14:48:37.911Z,52.70
2019-02-21T14:51:07.241Z,51.50
2019-02-21T14:53:36.675Z,51.80
2019-02-21T14:56:06.957Z,52.40
2019-02-21T14:58:36.282Z,52.20
2019-02-21T15:01:06.210Z,50.00
2019-02-21T15:03:35.526Z,50.00
2019-02-21T15:06:04.847Z,50.10
2019-02-21T15:08:34.201Z,50.10
2019-02-21T15:11:03.533Z,51.60
2019-02-21T15:13:32.845Z,52.80
2019-02-21T15:16:02.200Z,54.00
2019-02-21T15:18:31.526Z,53.10
2019-02-21T15:21:00.847Z,53.00
2019-02-21T15:23:31.282Z,55.10
2019-02-21T15:26:00.613Z,55.00
2019-02-21T15:28:30.001Z,54.80
2019-02-21T15:30:59.364Z,55.70
2019-02-21T15:33:28.686Z,56.70
2019-02-21T15:35:58.002Z,57.60
2019-02-21T15:38:27.377Z,57.50
2019-02-21T15:40:56.773Z,57.30
2019-02-21T15:43:26.101Z,55.60
2019-02-21T15:45:55.468Z,54.50
2019-02-21T15:48:24.864Z,53.10
2019-02-21T15:50:54.201Z,56.10
2019-02-21T15:53:23.627Z,56.60
2019-02-21T15:55:53.036Z,55.70
2019-02-21T15:58:22.427Z,55.50
2019-02-21T16:00:51.769Z,55.70
2019-02-21T16:03:21.101Z,54.60
2019-02-21T16:05:50.426Z,55.20
2019-02-21T16:08:19.807Z,54.00
2019-02-21T16:10:49.193Z,55.20
2019-02-21T16:13:18.520Z,56.90
2019-02-21T16:15:47.861Z,57.90
2019-02-21T16:18:17.172Z,58.60
2019-02-21T16:20:46.649Z,58.90
2019-02-21T16:23:16.013Z,57.80
2019-02-21T16:25:45.333Z,58.40
2019-02-21T16:28:14.681Z,57.60
2019-02-21T16:30:44.173Z,57.70
2019-02-21T16:33:13.496Z,57.70
2019-02-21T16:35:42.823Z,59.30
2019-02-21T16:38:12.211Z,61.20
2019-02-21T16:40:41.631Z,60.40
2019-02-21T16:43:10.968Z,62.50
2019-02-21T16:45:46.276Z,64.70
2019-02-21T16:48:12.320Z,64.60
2019-02-21T16:50:41.648Z,66.70
2019-02-21T16:53:10.978Z,67.60
2019-02-21T16:55:40.389Z,67.10
2019-02-21T16:58:09.720Z,68.30
2019-02-21T17:00:51.332Z,69.20
2019-02-21T17:03:10.306Z,70.70
2019-02-21T17:05:39.766Z,71.90
2019-02-21T17:08:09.080Z,72.10
2019-02-21T17:10:38.492Z,72.70
2019-02-21T17:13:08.032Z,73.40
2019-02-21T17:15:37.364Z,72.90
2019-02-21T17:18:06.762Z,73.00
2019-02-21T17:20:36.184Z,73.80
2019-02-21T17:23:05.647Z,73.60
2019-02-21T17:25:35.030Z,73.40
2019-02-21T17:28:04.553Z,74.70
2019-02-21T17:30:33.893Z,73.90
2019-02-21T17:33:03.241Z,73.30
2019-02-21T17:35:32.814Z,74.90
2019-02-21T17:38:02.819Z,74.90
2019-02-21T17:40:32.208Z,75.60
2019-02-21T17:43:01.572Z,76.30
2019-02-21T17:45:30.965Z,76.00
2019-02-21T17:48:00.347Z,77.50
2019-02-21T17:50:29.689Z,75.60
2019-02-21T17:52:59.121Z,77.20
2019-02-21T17:55:28.440Z,77.20
2019-02-21T17:57:57.917Z,78.10
2019-02-21T18:00:37.886Z,78.70
2019-02-21T18:03:07.274Z,78.10
2019-02-21T18:05:36.595Z,78.50
2019-02-21T18:08:06.092Z,78.00
2019-02-21T18:10:35.702Z,79.00
2019-02-21T18:13:05.262Z,79.50
2019-02-21T18:15:34.730Z,79.40
2019-02-21T18:18:04.130Z,79.10
2019-02-21T18:20:33.462Z,79.70
2019-02-21T18:23:02.833Z,81.30
2019-02-21T18:25:35.503Z,82.30
2019-02-21T18:28:04.966Z,82.20
2019-02-21T18:30:34.316Z,82.20
2019-02-21T18:33:05.192Z,81.90
2019-02-21T18:35:34.589Z,81.00
2019-02-21T18:38:04.320Z,82.60
2019-02-21T18:40:33.719Z,83.90
2019-02-21T18:43:03.167Z,84.10
2019-02-21T18:45:32.493Z,83.90
2019-02-21T18:48:03.022Z,83.30
2019-02-21T18:50:38.256Z,84.30
2019-02-21T18:53:03.488Z,85.10
2019-02-21T18:55:32.960Z,84.70
2019-02-21T18:58:02.455Z,85.50
2019-02-21T19:00:31.845Z,86.50
2019-02-21T19:03:01.173Z,86.90
2019-02-21T19:05:35.934Z,88.00
2019-02-21T19:08:05.482Z,87.70
2019-02-21T19:10:32.820Z,87.20
2019-02-21T19:13:02.208Z,87.70
2019-02-21T19:15:31.967Z,88.30
2019-02-21T19:18:01.395Z,88.60
2019-02-21T19:20:30.787Z,88.40
2019-02-21T19:23:00.117Z,89.10
2019-02-21T19:25:29.553Z,89.50
2019-02-21T19:27:58.927Z,90.00
2019-02-21T19:30:37.345Z,90.00
2019-02-21T19:33:06.881Z,90.00
2019-02-21T19:35:36.211Z,89.90
2019-02-21T19:38:10.335Z,90.00
2019-02-21T19:40:36.865Z,89.90
2019-02-21T19:43:06.250Z,89.20
2019-02-21T19:45:35.680Z,90.00
2019-02-21T19:48:05.001Z,90.40
2019-02-21T19:50:34.398Z,90.50
2019-02-21T19:53:03.831Z,90.80
2019-02-21T19:55:33.152Z,90.80
2019-02-21T19:58:02.705Z,90.70
2019-02-21T20:00:33.747Z,90.60
2019-02-21T20:03:03.210Z,90.90
2019-02-21T20:05:32.708Z,91.00
2019-02-21T20:08:08.724Z,91.10
2019-02-21T20:10:34.460Z,91.50
2019-02-21T20:13:05.483Z,91.30
2019-02-21T20:15:34.974Z,90.90
2019-02-21T20:18:04.306Z,90.80
2019-02-21T20:20:33.753Z,90.90
2019-02-21T20:23:03.193Z,91.10
2019-02-21T20:25:32.573Z,91.20
2019-02-21T20:28:02.034Z,91.20
2019-02-21T20:30:31.590Z,91.30
2019-02-21T20:33:00.968Z,91.10
2019-02-21T20:35:30.590Z,91.30
2019-02-21T20:38:00.089Z,91.50
2019-02-21T20:40:29.477Z,91.30
2019-02-21T20:42:58.867Z,91.40
2019-02-21T20:45:28.314Z,91.40
2019-02-21T20:47:57.681Z,91.40
2019-02-21T20:50:27.101Z,92.00
2019-02-21T20:52:56.490Z,91.90
2019-02-21T20:55:25.808Z,92.60
2019-02-21T20:57:55.196Z,92.50
2019-02-21T21:00:24.694Z,92.70
2019-02-21T21:02:54.090Z,93.10
2019-02-21T21:05:24.674Z,93.20
2019-02-21T21:07:53.983Z,92.80
2019-02-21T21:10:23.307Z,92.80
2019-02-21T21:12:52.708Z,92.60
2019-02-21T21:15:22.035Z,92.10
2019-02-21T21:17:51.345Z,92.10
2019-02-21T21:20:20.691Z,92.00
2019-02-21T21:22:50.005Z,92.50
2019-02-21T21:25:19.337Z,93.50
2019-02-21T21:27:48.666Z,93.40
2019-02-21T21:30:18.661Z,93.60
2019-02-21T21:32:48.223Z,93.50
2019-02-21T21:35:17.546Z,93.00
2019-02-21T21:37:46.867Z,92.60
2019-02-21T21:40:17.673Z,92.20
2019-02-21T21:42:46.992Z,92.40
2019-02-21T21:45:17.808Z,92.40
2019-02-21T21:47:47.284Z,92.20
2019-02-21T21:50:18.048Z,92.80
2019-02-21T21:52:47.714Z,93.70
2019-02-21T21:55:17.168Z,93.70
2019-02-21T21:57:46.562Z,93.30
2019-02-21T22:00:24.444Z,93.30
2019-02-21T22:02:53.944Z,93.20
2019-02-21T22:05:23.482Z,93.40
2019-02-21T22:07:52.835Z,93.40
2019-02-21T22:10:22.215Z,93.30
2019-02-21T22:12:51.524Z,93.40
2019-02-21T22:15:24.227Z,93.40
2019-02-21T22:17:53.609Z,93.20
2019-02-21T22:20:22.997Z,93.00
2019-02-21T22:22:52.401Z,93.20
2019-02-21T22:25:21.717Z,93.00
2019-02-21T22:27:51.106Z,93.40
2019-02-21T22:30:20.900Z,93.00
2019-02-21T22:32:51.181Z,93.40
2019-02-21T22:35:20.526Z,93.90
2019-02-21T22:37:49.911Z,94.70
2019-02-21T22:40:20.569Z,94.20
2019-02-21T22:42:49.915Z,94.00
2019-02-21T22:45:19.225Z,94.10
2019-02-21T22:47:48.616Z,93.90
2019-02-21T22:50:19.199Z,93.90
2019-02-21T22:52:49.581Z,93.90
2019-02-21T22:55:19.037Z,94.00
2019-02-21T22:57:48.400Z,94.00
2019-02-21T23:00:36.973Z,94.00
2019-02-21T23:03:12.449Z,94.10
2019-02-21T23:05:47.344Z,94.10
2019-02-21T23:08:42.459Z,94.10
2019-02-21T23:11:12.006Z,94.00
2019-02-21T23:13:41.388Z,94.30
2019-02-21T23:16:10.870Z,94.40
2019-02-21T23:18:41.152Z,94.30
2019-02-21T23:21:10.607Z,94.20
2019-02-21T23:23:40.026Z,94.30
2019-02-21T23:26:09.409Z,94.20
2019-02-21T23:28:51.175Z,94.00
2019-02-21T23:31:21.459Z,94.40
2019-02-21T23:34:01.460Z,94.50
2019-02-21T23:36:30.845Z,94.50
2019-02-21T23:39:01.739Z,94.50
2019-02-21T23:41:32.702Z,94.50
2019-02-21T23:44:02.020Z,94.70
2019-02-21T23:46:31.352Z,94.90
2019-02-21T23:49:00.857Z,94.80
2019-02-21T23:51:30.165Z,94.90
2019-02-21T23:54:03.088Z,95.00
2019-02-21T23:56:30.577Z,95.20
2019-02-21T23:58:59.902Z,95.10
